Time;durP1;ratioP1;P1;durP2;ratioP2;P2;SDS_P1;SDS_P2;PMS_P1;PMS_P2;Temp;Humidity;BMP_temperature;BMP_pressure;BME280_temperature;BME280_humidity;BME280_pressure;Samples;Min_cycle;Max_cycle;Signal;HPM_P1;HPM_P2
2023/04/16 00:00:02;;;;;;;7.45;2.30;;;;;;;15.89;41.29;99052.00;5091572;28;20023;-77
2023/04/16 00:02:28;;;;;;;9.45;2.60;;;;;;;15.83;41.22;99058.22;5091553;28;20023;-77
2023/04/16 00:04:53;;;;;;;7.95;2.83;;;;;;;15.91;41.55;99062.44;5091459;28;20538;-77
2023/04/16 00:07:19;;;;;;;6.95;2.78;;;;;;;15.65;41.67;99032.44;5091576;28;20054;-77
2023/04/16 00:09:45;;;;;;;6.72;2.53;;;;;;;15.75;41.60;99039.91;5091527;28;20057;-77
2023/04/16 00:12:10;;;;;;;6.05;2.40;;;;;;;15.84;41.79;99063.31;5090172;28;20020;-77
2023/04/16 00:14:36;;;;;;;8.82;2.95;;;;;;;16.16;42.07;99101.22;5091263;28;20038;-77
2023/04/16 00:17:01;;;;;;;6.78;2.40;;;;;;;15.85;41.93;99056.97;5091493;28;20420;-78
2023/04/16 00:19:27;;;;;;;6.15;2.85;;;;;;;16.18;42.14;99103.66;5091484;28;20488;-76
2023/04/16 00:21:52;;;;;;;9.27;3.67;;;;;;;16.25;42.45;99125.69;5091581;28;20491;-77
2023/04/16 00:24:18;;;;;;;13.80;8.73;;;;;;;16.03;42.32;99089.94;5091363;28;20024;-78
2023/04/16 00:26:45;;;;;;;10.38;4.75;;;;;;;15.91;42.32;99078.41;5089880;28;20048;-77
2023/04/16 00:29:10;;;;;;;6.38;3.10;;;;;;;16.25;43.04;99114.22;5091414;28;20109;-77
2023/04/16 00:31:36;;;;;;;9.38;3.13;;;;;;;16.27;43.10;99115.63;5091367;28;20016;-76
2023/04/16 00:34:02;;;;;;;8.30;2.85;;;;;;;16.09;43.25;99078.38;5091169;28;20028;-77
2023/04/16 00:36:28;;;;;;;7.07;2.67;;;;;;;16.32;43.39;99110.44;5091517;28;20104;-78
2023/04/16 00:38:54;;;;;;;5.53;2.63;;;;;;;15.79;43.39;99031.25;5089831;28;20450;-78
2023/04/16 00:41:21;;;;;;;9.05;2.38;;;;;;;15.89;43.28;99050.16;5091232;28;20412;-78
2023/04/16 00:43:47;;;;;;;4.68;2.53;;;;;;;15.85;43.78;99043.66;5091181;28;20020;-77
2023/04/16 00:46:14;;;;;;;8.88;2.97;;;;;;;15.87;43.84;99056.75;5091163;28;20473;-77
2023/04/16 00:48:41;;;;;;;6.30;2.60;;;;;;;16.28;43.98;99103.94;5089933;28;20017;-78
2023/04/16 00:51:07;;;;;;;6.68;2.60;;;;;;;16.26;43.91;99106.00;5091054;28;20016;-74
2023/04/16 00:53:34;;;;;;;7.15;2.85;;;;;;;16.29;43.80;99104.75;5090988;28;20028;-77
2023/04/16 00:56:02;;;;;;;5.68;2.47;;;;;;;15.79;43.94;99030.44;5091139;28;20028;-77
2023/04/16 00:58:28;;;;;;;5.35;3.05;;;;;;;16.27;43.97;99096.16;5093423;28;20012;-76
2023/04/16 01:00:55;;;;;;;6.72;3.03;;;;;;;16.15;44.34;99070.28;5094935;28;20523;-76
2023/04/16 01:03:21;;;;;;;8.05;3.10;;;;;;;16.28;44.19;99089.81;5094693;28;20020;-77
2023/04/16 01:05:48;;;;;;;6.28;2.35;;;;;;;15.82;44.62;99037.97;5093516;28;20549;-77
2023/04/16 01:08:20;;;;;;;6.57;2.65;;;;;;;16.27;44.68;99094.31;5094712;28;20411;-77
2023/04/16 01:10:46;;;;;;;5.95;2.70;;;;;;;16.25;44.69;99099.06;5094816;28;20433;-76
2023/04/16 01:13:12;;;;;;;10.63;3.15;;;;;;;16.25;44.80;99092.91;5102018;28;20035;-77
2023/04/16 01:15:37;;;;;;;7.60;2.15;;;;;;;15.71;44.81;99014.75;5111659;28;20026;-78
2023/04/16 01:18:15;;;;;;;6.40;2.78;;;;;;;16.22;44.86;99091.53;5114051;28;20027;-78
2023/04/16 01:20:41;;;;;;;7.25;2.50;;;;;;;15.91;44.80;99052.59;5095656;28;20020;-76
2023/04/16 01:23:06;;;;;;;7.28;2.88;;;;;;;16.11;45.34;99073.63;5094958;28;20458;-77
2023/04/16 01:25:31;;;;;;;3.83;2.30;;;;;;;16.21;45.56;99084.56;5094874;28;20035;-77
2023/04/16 01:27:58;;;;;;;6.00;2.35;;;;;;;16.05;45.67;99055.91;5093446;28;20024;-77
2023/04/16 01:30:23;;;;;;;5.18;2.10;;;;;;;16.18;45.39;99091.16;5094416;28;20024;-77
2023/04/16 01:32:49;;;;;;;4.97;2.33;;;;;;;15.65;45.88;98992.53;5094233;28;20027;-77
2023/04/16 01:35:16;;;;;;;9.60;3.03;;;;;;;15.66;45.69;98986.16;5094180;28;20445;-77
2023/04/16 01:37:42;;;;;;;8.77;2.63;;;;;;;15.92;45.68;99034.78;5092882;28;20028;-77
2023/04/16 01:40:08;;;;;;;7.07;2.63;;;;;;;15.77;45.82;99020.00;5094149;28;20408;-76
2023/04/16 01:42:33;;;;;;;9.18;2.97;;;;;;;16.11;45.99;99065.66;5094214;28;20016;-77
2023/04/16 01:44:58;;;;;;;7.05;3.10;;;;;;;15.60;45.81;98989.69;5093184;28;20024;-77
2023/04/16 01:47:24;;;;;;;6.75;2.50;;;;;;;15.69;45.86;99001.69;5094052;28;20051;-77
2023/04/16 01:49:50;;;;;;;8.38;2.42;;;;;;;15.95;45.86;99040.47;5094124;28;20031;-77
2023/04/16 01:52:15;;;;;;;8.02;2.17;;;;;;;16.07;46.01;99054.63;5093909;28;20016;-77
2023/04/16 01:54:41;;;;;;;4.38;2.33;;;;;;;16.22;45.65;99080.88;5094055;28;20103;-78
2023/04/16 01:57:06;;;;;;;6.63;2.38;;;;;;;16.21;45.85;99084.56;5093859;28;20028;-77
2023/04/16 01:59:31;;;;;;;6.28;2.20;;;;;;;15.94;46.00;99046.81;5093784;28;20031;-78
2023/04/16 02:02:05;;;;;;;6.70;2.40;;;;;;;16.03;46.74;99068.63;5093880;28;20095;-77
2023/04/16 02:04:31;;;;;;;5.35;2.20;;;;;;;15.88;46.84;99048.53;5093863;28;20031;-79
2023/04/16 02:06:56;;;;;;;5.30;2.30;;;;;;;15.99;47.22;99076.25;5093488;28;20028;-77
2023/04/16 02:09:22;;;;;;;7.10;2.88;;;;;;;16.00;47.27;99077.06;5093521;28;20515;-77
2023/04/16 02:11:47;;;;;;;7.22;2.42;;;;;;;15.45;47.78;99015.84;5093414;28;20073;-76
2023/04/16 02:14:12;;;;;;;8.70;2.45;;;;;;;15.88;47.83;99074.34;5093343;28;20027;-77
2023/04/16 02:16:38;;;;;;;7.00;2.60;;;;;;;15.52;48.14;99020.03;5093463;28;20515;-77
2023/04/16 02:19:03;;;;;;;7.70;2.70;;;;;;;15.93;48.09;99076.34;5093486;28;20024;-76
2023/04/16 02:21:28;;;;;;;4.57;2.63;;;;;;;15.66;48.82;99057.22;5091988;28;20111;-77
2023/04/16 02:23:54;;;;;;;6.38;2.42;;;;;;;15.61;49.03;99047.22;5093271;28;20028;-76
2023/04/16 02:26:20;;;;;;;7.32;2.70;;;;;;;15.67;48.85;99062.31;5093202;28;20157;-77
2023/04/16 02:28:45;;;;;;;7.07;2.80;;;;;;;15.59;49.02;99051.94;5093304;28;20020;-77
2023/04/16 02:31:10;;;;;;;10.35;3.00;;;;;;;15.34;49.12;99008.59;5092134;28;20488;-77
2023/04/16 02:33:36;;;;;;;6.20;2.83;;;;;;;15.76;49.15;99076.94;5092021;28;20020;-76
2023/04/16 02:36:01;;;;;;;6.85;2.70;;;;;;;15.32;49.21;99006.16;5092053;28;20032;-77
2023/04/16 02:38:26;;;;;;;7.35;2.75;;;;;;;15.49;49.23;99031.13;5093357;28;20098;-77
2023/04/16 02:40:52;;;;;;;10.50;2.85;;;;;;;15.77;49.30;99070.56;5093356;28;20076;-77
2023/04/16 02:43:17;;;;;;;7.97;2.85;;;;;;;15.34;49.63;98996.09;5091693;28;20027;-76
2023/04/16 02:45:43;;;;;;;10.43;3.65;;;;;;;15.73;49.40;99052.63;5091670;28;20016;-77
2023/04/16 02:48:08;;;;;;;10.70;3.45;;;;;;;15.27;49.73;98961.59;5093098;28;20072;-78
2023/04/16 02:50:34;;;;;;;10.48;2.95;;;;;;;15.60;49.45;99008.31;5092729;28;20409;-77
2023/04/16 02:52:59;;;;;;;7.75;2.72;;;;;;;15.32;49.57;98982.22;5092813;28;20019;-76
2023/04/16 02:55:25;;;;;;;7.85;3.50;;;;;;;15.73;49.80;99041.97;5092606;28;20104;-76
2023/04/16 02:57:51;;;;;;;7.57;3.25;;;;;;;15.71;49.75;99039.53;5092552;28;20039;-78
2023/04/16 03:00:17;;;;;;;11.85;3.60;;;;;;;15.36;50.08;98996.69;5092533;28;20020;-76
2023/04/16 03:02:43;;;;;;;7.97;3.13;;;;;;;15.81;49.75;99050.47;5092648;28;20081;-77
2023/04/16 03:05:09;;;;;;;6.72;3.33;;;;;;;15.41;49.98;98996.84;5092773;28;20016;-77
2023/04/16 03:07:34;;;;;;;8.90;3.05;;;;;;;15.82;49.92;99080.56;5092416;28;20055;-77
2023/04/16 03:09:59;;;;;;;6.25;3.22;;;;;;;15.54;50.04;99019.81;5092449;28;20521;-77
2023/04/16 03:12:25;;;;;;;9.75;3.20;;;;;;;15.31;50.75;98985.09;5092370;28;20043;-77
2023/04/16 03:14:53;;;;;;;8.95;3.17;;;;;;;15.88;50.51;99090.31;5092223;28;20112;-77
2023/04/16 03:17:19;;;;;;;7.75;3.25;;;;;;;15.20;50.70;98979.50;5092383;28;20024;-77
2023/04/16 03:19:44;;;;;;;8.15;2.67;;;;;;;15.84;51.06;99097.13;5092121;28;20048;-76
2023/04/16 03:22:09;;;;;;;11.35;3.63;;;;;;;15.85;50.81;99102.22;5091854;28;20094;-77
2023/04/16 03:24:36;;;;;;;10.35;3.80;;;;;;;15.40;50.88;99023.66;5092164;28;20012;-76
2023/04/16 03:27:01;;;;;;;8.70;3.05;;;;;;;15.83;50.98;99098.16;5091786;28;20456;-77
2023/04/16 03:29:27;;;;;;;7.90;2.75;;;;;;;15.00;50.99;98989.53;5090597;28;20028;-76
2023/04/16 03:31:52;;;;;;;9.02;3.30;;;;;;;15.40;50.78;99067.03;5092130;28;20031;-77
2023/04/16 03:34:18;;;;;;;7.72;2.95;;;;;;;15.25;51.11;99058.63;5091937;28;20107;-76
2023/04/16 03:36:43;;;;;;;5.30;2.60;;;;;;;14.92;50.88;99013.72;5092019;28;20100;-77
2023/04/16 03:39:08;;;;;;;10.48;3.35;;;;;;;15.31;50.85;99086.19;5090569;28;20012;-77
2023/04/16 03:41:34;;;;;;;9.65;3.40;;;;;;;15.45;51.21;99116.94;5091886;28;20085;-78
2023/04/16 03:43:59;;;;;;;9.55;3.70;;;;;;;15.19;50.94;99062.16;5091808;28;20030;-77
2023/04/16 03:46:24;;;;;;;10.27;3.10;;;;;;;15.24;51.45;99071.09;5091722;28;20485;-76
2023/04/16 03:48:50;;;;;;;12.82;4.15;;;;;;;15.19;51.35;99073.59;5091869;28;20099;-78
2023/04/16 03:51:15;;;;;;;9.75;4.07;;;;;;;15.49;51.39;99123.44;5091773;28;20494;-76
2023/04/16 03:53:40;;;;;;;8.88;3.45;;;;;;;15.08;51.46;99058.38;5090350;28;20031;-77
2023/04/16 03:56:06;;;;;;;10.35;3.83;;;;;;;15.20;51.52;99069.91;5091521;28;20103;-77
2023/04/16 03:58:31;;;;;;;9.50;4.50;;;;;;;15.43;51.81;99108.34;5091453;28;20027;-77
2023/04/16 04:00:57;;;;;;;10.45;4.15;;;;;;;15.21;51.59;99074.19;5091526;28;20020;-76
2023/04/16 04:03:22;;;;;;;7.63;4.28;;;;;;;15.20;51.54;99074.41;5091582;28;20023;-77
2023/04/16 04:05:47;;;;;;;14.13;4.95;;;;;;;15.01;51.86;99030.22;5091603;28;20539;-76
2023/04/16 04:08:13;;;;;;;10.27;4.97;;;;;;;15.29;51.43;99075.75;5091540;28;20024;-77
2023/04/16 04:10:38;;;;;;;12.85;5.80;;;;;;;14.87;51.59;99013.56;5091639;28;20059;-77
2023/04/16 04:13:05;;;;;;;9.90;4.72;;;;;;;15.44;51.96;99118.78;5091560;28;20020;-77
2023/04/16 04:15:31;;;;;;;9.90;5.28;;;;;;;15.12;51.72;99075.50;5089947;28;20417;-77
2023/04/16 04:17:56;;;;;;;10.65;4.75;;;;;;;15.39;51.98;99117.81;5091446;28;20020;-76
2023/04/16 04:20:23;;;;;;;10.57;5.20;;;;;;;15.39;51.94;99126.59;5091411;28;20089;-77
2023/04/16 04:22:49;;;;;;;9.35;5.35;;;;;;;15.13;51.92;99086.97;5091453;28;20022;-77
2023/04/16 04:25:15;;;;;;;16.35;8.63;;;;;;;15.37;52.09;99128.66;5091339;28;20048;-76
2023/04/16 04:27:41;;;;;;;12.45;7.57;;;;;;;15.44;51.90;99141.91;5091496;28;20031;-77
2023/04/16 04:30:07;;;;;;;9.65;4.18;;;;;;;15.15;52.16;99108.81;5091408;28;20475;-76
2023/04/16 04:32:32;;;;;;;14.52;6.32;;;;;;;15.33;51.80;99142.63;5091026;28;20421;-77
2023/04/16 04:35:00;;;;;;;8.98;5.57;;;;;;;15.29;52.07;99144.91;5093920;28;20031;-77
2023/04/16 04:37:25;;;;;;;9.00;5.22;;;;;;;15.30;51.94;99143.88;5095494;28;20052;-76
2023/04/16 04:39:51;;;;;;;8.82;5.35;;;;;;;15.05;52.17;99122.63;5095356;28;20465;-77
2023/04/16 04:42:20;;;;;;;10.38;5.30;;;;;;;15.11;51.71;99143.00;5095359;28;20024;-77
2023/04/16 04:44:46;;;;;;;11.00;5.03;;;;;;;15.22;51.72;99176.88;5095082;28;20039;-76
2023/04/16 04:47:11;;;;;;;10.88;5.22;;;;;;;14.87;51.58;99111.91;5095143;28;20519;-77
2023/04/16 04:49:37;;;;;;;9.70;4.28;;;;;;;14.85;51.87;99100.66;5095098;28;20107;-76
2023/04/16 04:52:02;;;;;;;11.15;4.68;;;;;;;14.65;51.30;99066.25;5095026;28;20020;-77
2023/04/16 04:54:30;;;;;;;9.65;5.10;;;;;;;15.37;51.64;99175.75;5094690;28;20090;-77
2023/04/16 04:56:55;;;;;;;10.82;5.43;;;;;;;15.15;51.60;99138.88;5094965;28;20500;-76
2023/04/16 04:59:22;;;;;;;9.98;4.53;;;;;;;15.43;51.43;99177.53;5094994;28;20099;-77
2023/04/16 05:01:48;;;;;;;13.05;6.43;;;;;;;14.92;51.44;99096.13;5094913;28;20020;-76
2023/04/16 05:04:13;;;;;;;10.70;4.75;;;;;;;14.79;51.43;99070.44;5094884;28;20032;-76
2023/04/16 05:06:38;;;;;;;13.60;5.63;;;;;;;14.93;52.92;99101.22;5094889;28;20031;-76
2023/04/16 05:09:04;;;;;;;17.00;7.65;;;;;;;14.98;53.56;99111.22;5094853;28;20048;-76
2023/04/16 05:11:29;;;;;;;15.48;7.20;;;;;;;14.70;53.71;99076.25;5094824;28;20378;-76
2023/04/16 05:13:55;;;;;;;13.15;6.78;;;;;;;14.74;54.40;99082.75;5094897;28;20057;-76
2023/04/16 05:16:21;;;;;;;10.57;6.50;;;;;;;14.81;54.93;99091.50;5094627;28;20077;-76
2023/04/16 05:18:46;;;;;;;18.35;9.60;;;;;;;15.26;54.86;99167.44;5094715;28;20031;-76
2023/04/16 05:21:12;;;;;;;15.23;8.18;;;;;;;14.86;54.60;99099.63;5094687;28;20039;-76
2023/04/16 05:23:37;;;;;;;10.88;5.88;;;;;;;14.93;55.30;99113.72;5094581;28;20519;-77
2023/04/16 05:26:02;;;;;;;12.10;6.22;;;;;;;15.07;55.03;99139.16;5093610;28;20056;-75
2023/04/16 05:28:29;;;;;;;9.95;5.35;;;;;;;14.77;55.42;99079.66;5093120;28;20404;-76
2023/04/16 05:30:54;;;;;;;12.90;5.07;;;;;;;14.76;55.72;99086.00;5093060;28;20043;-75
2023/04/16 05:33:20;;;;;;;10.43;4.68;;;;;;;15.07;55.69;99128.53;5093277;28;20117;-76
2023/04/16 05:35:45;;;;;;;10.95;5.00;;;;;;;14.93;56.17;99109.22;5093097;28;20020;-77
2023/04/16 05:38:10;;;;;;;10.25;4.63;;;;;;;15.32;56.41;99156.97;5091796;28;20094;-76
2023/04/16 05:40:36;;;;;;;10.45;5.15;;;;;;;14.97;57.12;99112.25;5093248;28;20078;-76
2023/04/16 05:43:01;;;;;;;12.75;5.40;;;;;;;14.84;57.11;99083.09;5092538;28;20024;-75
2023/04/16 05:45:27;;;;;;;10.27;5.05;;;;;;;15.01;57.84;99118.75;5092779;28;20022;-76
2023/04/16 05:47:52;;;;;;;11.43;5.15;;;;;;;14.89;57.80;99104.53;5091433;28;20020;-76
2023/04/16 05:50:17;;;;;;;13.95;6.60;;;;;;;15.07;58.42;99125.88;5092684;28;20059;-75
2023/04/16 05:52:43;;;;;;;10.25;5.63;;;;;;;14.94;58.51;99104.72;5092734;28;20020;-77
2023/04/16 05:55:08;;;;;;;16.90;7.07;;;;;;;15.11;58.15;99118.28;5093086;28;20157;-76
2023/04/16 05:57:34;;;;;;;11.98;6.57;;;;;;;14.91;58.17;99075.91;5092737;28;20024;-75
2023/04/16 05:59:59;;;;;;;13.75;7.13;;;;;;;14.98;58.20;99071.34;5092675;28;20016;-76
2023/04/16 06:02:25;;;;;;;13.85;6.70;;;;;;;15.40;58.48;99127.41;5091350;28;20027;-76
2023/04/16 06:04:50;;;;;;;10.52;7.38;;;;;;;15.57;58.15;99139.13;5092764;28;20077;-76
2023/04/16 06:07:15;;;;;;;9.05;5.95;;;;;;;15.77;57.78;99157.59;5091405;28;20023;-76
2023/04/16 06:09:41;;;;;;;12.10;6.72;;;;;;;15.49;57.90;99100.31;5092660;28;20062;-76
2023/04/16 06:12:06;;;;;;;12.25;5.97;;;;;;;15.83;57.80;99141.56;5092546;28;20092;-76
2023/04/16 06:14:32;;;;;;;13.60;6.53;;;;;;;15.87;57.28;99137.41;5092409;28;20024;-76
2023/04/16 06:16:57;;;;;;;12.20;6.50;;;;;;;16.03;57.53;99165.31;5092403;28;20024;-76
2023/04/16 06:19:23;;;;;;;14.05;8.20;;;;;;;15.63;57.40;99081.59;5092286;28;20016;-76
2023/04/16 06:21:49;;;;;;;15.75;11.10;;;;;;;15.71;57.73;99070.66;5092327;28;20089;-76
2023/04/16 06:24:15;;;;;;;17.15;11.32;;;;;;;15.97;57.91;99107.63;5092409;28;20031;-76
2023/04/16 06:26:40;;;;;;;14.02;8.90;;;;;;;16.21;58.89;99143.97;5052690;28;1142156;-77
2023/04/16 06:29:05;;;;;;;15.52;9.10;;;;;;;16.13;58.91;99120.31;5093264;28;20031;-76
2023/04/16 06:31:31;;;;;;;13.90;8.93;;;;;;;16.27;59.36;99123.63;5093072;28;20058;-76
2023/04/16 06:33:56;;;;;;;12.40;8.48;;;;;;;16.22;59.49;99107.50;5093212;28;20027;-76
2023/04/16 06:36:22;;;;;;;13.52;7.75;;;;;;;16.04;60.16;99071.06;5093018;28;20028;-76
2023/04/16 06:38:47;;;;;;;14.85;7.43;;;;;;;16.10;60.37;99080.00;5092923;28;20024;-76
2023/04/16 06:41:13;;;;;;;12.55;7.68;;;;;;;16.28;60.47;99098.59;5092978;28;20020;-76
2023/04/16 06:43:39;;;;;;;18.23;7.43;;;;;;;16.68;61.02;99152.22;5093008;28;20027;-77
2023/04/16 06:46:04;;;;;;;13.57;7.65;;;;;;;16.25;60.95;99096.38;5093035;28;20020;-77
2023/04/16 06:48:30;;;;;;;16.67;6.80;;;;;;;16.77;60.94;99169.53;5092945;28;20024;-76
2023/04/16 06:50:56;;;;;;;13.18;7.28;;;;;;;16.84;60.85;99158.75;5092930;28;20511;-76
2023/04/16 06:53:22;;;;;;;13.82;7.55;;;;;;;16.57;60.89;99105.00;5092790;28;20024;-76
2023/04/16 06:55:47;;;;;;;13.65;6.60;;;;;;;16.92;60.90;99157.63;5090666;28;20021;-76
2023/04/16 06:58:12;;;;;;;13.20;6.72;;;;;;;16.64;60.80;99115.56;5092729;28;20024;-76
2023/04/16 07:00:38;;;;;;;12.68;6.32;;;;;;;16.82;60.53;99145.66;5092700;28;20024;-76
2023/04/16 07:03:03;;;;;;;15.90;7.00;;;;;;;16.95;60.73;99170.50;5092532;28;20042;-76
2023/04/16 07:05:29;;;;;;;13.32;6.90;;;;;;;16.48;60.74;99093.84;5091352;28;20105;-76
2023/04/16 07:07:56;;;;;;;13.43;6.30;;;;;;;16.73;60.93;99132.88;5092518;28;20022;-76
2023/04/16 07:10:22;;;;;;;10.45;6.43;;;;;;;16.56;61.13;99102.56;5092373;28;20024;-76
2023/04/16 07:12:47;;;;;;;11.70;7.05;;;;;;;17.07;61.09;99180.16;5091140;28;20026;-76
2023/04/16 07:15:12;;;;;;;12.18;6.60;;;;;;;17.09;61.22;99182.59;5092388;28;20016;-75
2023/04/16 07:17:38;;;;;;;12.90;6.32;;;;;;;16.83;60.83;99133.94;5092345;28;20488;-76
2023/04/16 07:20:04;;;;;;;14.93;6.88;;;;;;;17.10;60.87;99142.38;5092266;28;20020;-76
2023/04/16 07:22:29;;;;;;;14.32;6.32;;;;;;;16.91;60.64;99087.47;5092254;28;20054;-77
2023/04/16 07:24:55;;;;;;;12.63;6.57;;;;;;;16.88;60.44;99057.78;5092209;28;20024;-76
2023/04/16 07:27:20;;;;;;;11.07;5.63;;;;;;;17.61;60.32;99159.56;5092153;28;20028;-76
2023/04/16 07:29:46;;;;;;;15.48;6.65;;;;;;;17.25;59.94;99101.91;5090834;28;20059;-76
2023/04/16 07:32:12;;;;;;;13.80;6.10;;;;;;;17.73;59.68;99155.06;5090766;28;20110;-76
2023/04/16 07:34:37;;;;;;;10.65;5.25;;;;;;;17.94;59.54;99163.53;5091857;28;20020;-78
2023/04/16 07:37:02;;;;;;;9.73;5.43;;;;;;;17.93;59.09;99154.72;5092115;28;20032;-77
2023/04/16 07:39:28;;;;;;;12.50;5.93;;;;;;;17.48;58.93;99064.53;5091992;28;20012;-76
2023/04/16 07:41:53;;;;;;;10.77;5.60;;;;;;;17.78;58.98;99106.28;5092069;28;20548;-75
2023/04/16 07:44:19;;;;;;;13.30;6.53;;;;;;;17.76;59.00;99100.38;5091973;28;20027;-77
2023/04/16 07:46:44;;;;;;;10.02;5.55;;;;;;;17.59;59.25;99062.06;5092058;28;20528;-76
2023/04/16 07:49:10;;;;;;;11.40;5.45;;;;;;;17.72;59.54;99080.53;5091823;28;20485;-76
2023/04/16 07:51:35;;;;;;;11.40;4.90;;;;;;;17.93;59.65;99095.94;5091673;28;20501;-75
2023/04/16 07:54:01;;;;;;;12.70;5.65;;;;;;;17.71;59.13;99045.00;5091795;28;20049;-77
2023/04/16 07:56:26;;;;;;;11.90;5.88;;;;;;;17.97;59.10;99061.56;5091679;28;20479;-77
2023/04/16 07:58:51;;;;;;;13.43;5.80;;;;;;;18.17;58.89;99090.53;5091517;28;20056;-76
2023/04/16 08:01:17;;;;;;;14.95;6.35;;;;;;;18.36;58.81;99102.66;5091439;28;20024;-76
2023/04/16 08:03:42;;;;;;;11.05;5.25;;;;;;;18.58;58.70;99135.72;5090345;28;20023;-76
2023/04/16 08:06:08;;;;;;;11.35;5.35;;;;;;;18.58;58.14;99127.69;5091443;28;20039;-76
2023/04/16 08:08:33;;;;;;;14.40;5.47;;;;;;;18.23;57.73;99057.50;5091438;28;20085;-76
2023/04/16 08:10:59;;;;;;;10.25;4.55;;;;;;;18.44;57.12;99086.22;5091593;28;20020;-76
2023/04/16 08:13:24;;;;;;;16.30;5.97;;;;;;;18.41;56.45;99076.81;5091458;28;20020;-76
2023/04/16 08:15:50;;;;;;;14.50;5.38;;;;;;;18.48;56.33;99078.53;5091536;28;20016;-78
2023/04/16 08:18:15;;;;;;;12.30;5.20;;;;;;;18.61;56.33;99096.97;5091440;28;20016;-76
2023/04/16 08:20:41;;;;;;;12.45;4.97;;;;;;;18.91;56.22;99132.31;5091524;28;20074;-78
2023/04/16 08:23:07;;;;;;;14.82;5.20;;;;;;;18.88;56.47;99134.66;5091308;28;20028;-76
2023/04/16 08:25:32;;;;;;;11.73;5.05;;;;;;;18.50;56.41;99063.06;5089941;28;20481;-76
2023/04/16 08:27:58;;;;;;;14.95;6.25;;;;;;;18.40;56.45;99045.81;5089965;28;20023;-76
2023/04/16 08:30:23;;;;;;;15.23;5.88;;;;;;;18.71;56.01;99092.66;5091268;28;20024;-76
2023/04/16 08:32:49;;;;;;;14.35;5.20;;;;;;;18.42;55.85;99033.00;5091625;28;20024;-77
2023/04/16 08:35:15;;;;;;;11.00;5.30;;;;;;;18.65;55.61;99060.72;5091440;28;20111;-76
2023/04/16 08:37:40;;;;;;;12.25;5.43;;;;;;;18.89;55.41;99085.44;5091477;28;20419;-76
2023/04/16 08:40:06;;;;;;;15.90;5.13;;;;;;;19.09;55.29;99114.38;5091383;28;20103;-76
2023/04/16 08:42:35;;;;;;;12.95;5.32;;;;;;;18.82;54.88;99052.69;5090294;28;20108;-77
2023/04/16 08:45:09;;;;;;;12.90;5.82;;;;;;;19.22;54.32;99109.50;5090070;28;20024;-77
2023/04/16 08:47:38;;;;;;;13.10;5.60;;;;;;;19.02;54.34;99080.56;5091197;28;20045;-77
2023/04/16 08:50:04;;;;;;;16.88;5.35;;;;;;;18.66;54.13;99024.91;5091151;28;20106;-77
2023/04/16 08:52:30;;;;;;;13.77;5.53;;;;;;;19.14;54.13;99101.91;5091061;28;20078;-77
2023/04/16 08:55:04;;;;;;;11.73;5.45;;;;;;;18.71;54.58;99038.34;5089635;28;20499;-77
2023/04/16 08:57:43;;;;;;;17.13;5.65;;;;;;;18.98;54.25;99074.09;5091089;28;20024;-77
2023/04/16 09:00:10;;;;;;;14.25;6.13;;;;;;;19.26;54.17;99102.63;5091089;28;20031;-76
2023/04/16 09:02:36;;;;;;;16.77;5.78;;;;;;;19.31;53.93;99102.69;5089784;28;20555;-77
2023/04/16 09:05:05;;;;;;;12.55;5.15;;;;;;;19.15;52.90;99074.06;5091057;28;20099;-77
2023/04/16 09:07:33;;;;;;;10.70;4.78;;;;;;;19.26;52.52;99109.84;5091000;28;20028;-77
2023/04/16 09:10:00;;;;;;;15.57;4.80;;;;;;;18.69;52.29;99013.72;5090932;28;20028;-76
2023/04/16 09:12:26;;;;;;;14.68;5.40;;;;;;;19.18;52.23;99096.88;5090900;28;20099;-76
2023/04/16 09:14:52;;;;;;;11.82;5.50;;;;;;;19.18;52.16;99097.69;5090893;28;20072;-77
2023/04/16 09:17:18;;;;;;;14.55;5.10;;;;;;;19.16;52.06;99090.94;5090818;28;20020;-76
2023/04/16 09:19:44;;;;;;;10.07;5.10;;;;;;;18.83;52.08;99025.72;5093647;28;20109;-77
2023/04/16 09:22:10;;;;;;;13.27;5.18;;;;;;;18.93;51.92;99041.09;5094629;28;20027;-77
2023/04/16 09:24:37;;;;;;;12.73;5.50;;;;;;;19.37;51.98;99098.25;5094554;28;20031;-77
2023/04/16 09:27:03;;;;;;;14.43;5.70;;;;;;;19.48;51.90;99099.19;5094345;28;20047;-76
2023/04/16 09:29:36;;;;;;;14.15;5.97;;;;;;;19.52;51.50;99090.47;5094598;28;20463;-76
2023/04/16 09:32:04;;;;;;;14.20;5.80;;;;;;;19.44;51.57;99076.66;5094476;28;20523;-76
2023/04/16 09:34:32;;;;;;;15.32;5.90;;;;;;;19.61;52.08;99091.66;5093228;28;20500;-77
2023/04/16 09:37:16;;;;;;;16.20;5.55;;;;;;;19.32;51.27;99031.22;5094553;28;20027;-76
2023/04/16 09:39:52;;;;;;;12.75;4.95;;;;;;;19.44;50.96;99041.84;5094345;28;20074;-78
2023/04/16 09:42:23;;;;;;;12.27;5.53;;;;;;;19.52;50.77;99031.53;5094197;28;20020;-76
2023/04/16 09:44:50;;;;;;;14.18;6.60;;;;;;;19.97;51.25;99087.53;5094086;28;20113;-77
2023/04/16 09:47:15;;;;;;;14.98;7.35;;;;;;;19.55;52.41;99025.69;5093977;28;20023;-76
2023/04/16 09:49:41;;;;;;;13.85;6.88;;;;;;;19.43;52.98;99034.88;5093909;28;20040;-78
2023/04/16 09:52:17;;;;;;;17.20;7.95;;;;;;;19.79;53.85;99079.81;5093654;28;20081;-74
2023/04/16 09:54:52;;;;;;;14.43;7.70;;;;;;;19.49;53.48;99007.91;5091021;28;20044;-76
2023/04/16 09:57:20;;;;;;;16.02;7.70;;;;;;;20.57;52.74;99075.09;5093837;28;20024;-76
2023/04/16 09:59:45;;;;;;;15.48;6.80;;;;;;;20.58;51.84;99015.03;5094265;28;20020;-75
2023/04/16 10:02:11;;;;;;;16.48;6.28;;;;;;;21.40;50.68;99068.25;5093999;28;20032;-77
2023/04/16 10:04:50;;;;;;;14.52;6.35;;;;;;;21.86;49.55;99060.44;5093944;28;20496;-74
2023/04/16 10:07:16;;;;;;;16.77;6.95;;;;;;;21.93;48.68;99050.25;5093824;28;20024;-75
2023/04/16 10:09:42;;;;;;;12.45;5.72;;;;;;;21.91;47.61;99046.19;5093686;28;20047;-78
2023/04/16 10:12:09;;;;;;;10.20;4.90;;;;;;;22.05;46.46;99058.09;5093715;28;20501;-74
2023/04/16 10:14:34;;;;;;;10.82;4.93;;;;;;;21.50;45.78;98979.66;5093502;28;20054;-77
2023/04/16 10:17:00;;;;;;;13.77;6.35;;;;;;;21.84;45.65;99058.00;5093677;28;20055;-77
2023/04/16 10:19:30;;;;;;;12.82;6.95;;;;;;;21.44;46.57;99014.81;5093296;28;20485;-77
2023/04/16 10:21:56;;;;;;;12.45;7.22;;;;;;;21.13;47.84;99006.56;5092032;28;20016;-76
2023/04/16 10:24:22;;;;;;;14.23;6.70;;;;;;;20.92;48.87;99026.31;5093372;28;20531;-77
2023/04/16 10:26:50;;;;;;;15.45;7.93;;;;;;;21.01;49.90;99080.31;5093153;28;20045;-77
2023/04/16 10:29:16;;;;;;;15.48;7.72;;;;;;;20.66;50.66;99062.84;5093154;28;20063;-77
2023/04/16 10:31:42;;;;;;;13.85;8.27;;;;;;;20.50;51.24;99079.84;5092412;28;20056;-77
2023/04/16 10:34:08;;;;;;;15.43;8.65;;;;;;;20.36;52.15;99075.94;5093211;28;20024;-75
2023/04/16 10:36:38;;;;;;;13.90;8.27;;;;;;;19.94;52.90;99045.19;5092919;28;20027;-76
2023/04/16 10:39:10;;;;;;;13.82;8.40;;;;;;;19.95;53.42;99060.19;5092891;28;20415;-76
2023/04/16 10:41:37;;;;;;;14.23;7.55;;;;;;;19.81;53.96;99067.00;5092929;28;20546;-74
2023/04/16 10:44:11;;;;;;;10.02;6.25;;;;;;;19.72;53.18;99062.31;5092950;28;20412;-77
2023/04/16 10:46:41;;;;;;;10.07;5.40;;;;;;;19.54;52.49;99033.97;5092907;28;20023;-77
2023/04/16 10:49:23;;;;;;;11.95;5.57;;;;;;;19.70;52.14;99049.19;5092880;28;20016;-77
2023/04/16 10:52:06;;;;;;;12.05;5.00;;;;;;;20.41;51.33;99046.50;5093151;28;20023;-75
2023/04/16 10:54:34;;;;;;;7.53;4.47;;;;;;;20.96;49.32;99040.00;5092680;28;20454;-77
2023/04/16 10:57:05;;;;;;;7.95;4.53;;;;;;;20.95;48.28;98980.16;5092740;28;20015;-77
2023/04/16 10:59:33;;;;;;;7.05;4.32;;;;;;;21.57;47.00;99041.22;5092674;28;20020;-77
2023/04/16 11:02:00;;;;;;;6.85;4.03;;;;;;;21.15;45.68;98925.78;5092726;28;20059;-76
2023/04/16 11:04:36;;;;;;;9.50;4.00;;;;;;;22.36;45.16;99062.50;5091219;28;20504;-76
2023/04/16 11:07:15;;;;;;;6.20;3.42;;;;;;;21.99;44.66;99000.78;5092857;28;20401;-78
2023/04/16 11:10:11;;;;;;;7.88;3.90;;;;;;;22.05;44.86;99063.47;5092363;28;20032;-77
2023/04/16 11:12:39;;;;;;;4.90;3.08;;;;;;;21.66;44.85;99007.41;5088920;28;20120;-77
2023/04/16 11:15:09;;;;;;;5.15;3.03;;;;;;;22.32;43.78;99037.22;5092360;28;20048;-76
2023/04/16 11:17:53;;;;;;;7.63;3.40;;;;;;;22.88;43.13;99044.53;5092564;28;20024;-76
2023/04/16 11:20:21;;;;;;;7.55;3.33;;;;;;;22.92;42.29;98992.56;5092321;28;20261;-77
2023/04/16 11:22:51;;;;;;;6.88;3.42;;;;;;;23.38;41.73;99049.84;5092395;28;20028;-76
2023/04/16 11:25:32;;;;;;;7.68;3.47;;;;;;;23.02;41.62;99008.69;5090834;28;20064;-76